sensor_id;sensor_type;location;lat;lon;timestamp;temperature;humidity
9881;DHT22;4979;51.014;6.678;2023-01-19T00:00:45;2.00;99.90
9881;DHT22;4979;51.014;6.678;2023-01-19T00:03:11;2.10;99.90
9881;DHT22;4979;51.014;6.678;2023-01-19T00:05:43;1.90;99.90
9881;DHT22;4979;51.014;6.678;2023-01-19T00:08:09;1.90;99.90
9881;DHT22;4979;51.014;6.678;2023-01-19T00:10:43;1.90;99.90
9881;DHT22;4979;51.014;6.678;2023-01-19T00:13:09;1.90;99.90
9881;DHT22;4979;51.014;6.678;2023-01-19T00:15:34;2.00;99.90
9881;DHT22;4979;51.014;6.678;2023-01-19T00:18:00;1.90;99.90
9881;DHT22;4979;51.014;6.678;2023-01-19T00:20:25;1.90;99.90
9881;DHT22;4979;51.014;6.678;2023-01-19T00:22:51;1.90;99.90
9881;DHT22;4979;51.014;6.678;2023-01-19T00:25:16;1.90;99.90
9881;DHT22;4979;51.014;6.678;2023-01-19T00:27:42;1.80;99.90
9881;DHT22;4979;51.014;6.678;2023-01-19T00:30:14;1.80;99.90
9881;DHT22;4979;51.014;6.678;2023-01-19T00:32:40;1.80;99.90
9881;DHT22;4979;51.014;6.678;2023-01-19T00:35:05;1.90;99.90
9881;DHT22;4979;51.014;6.678;2023-01-19T00:37:31;1.80;99.90
9881;DHT22;4979;51.014;6.678;2023-01-19T00:39:56;1.70;99.90
9881;DHT22;4979;51.014;6.678;2023-01-19T00:42:22;1.80;99.90
9881;DHT22;4979;51.014;6.678;2023-01-19T00:45:19;1.80;99.90
9881;DHT22;4979;51.014;6.678;2023-01-19T00:47:47;1.80;99.90
9881;DHT22;4979;51.014;6.678;2023-01-19T00:50:15;1.90;99.90
9881;DHT22;4979;51.014;6.678;2023-01-19T00:52:42;1.90;99.90
9881;DHT22;4979;51.014;6.678;2023-01-19T00:55:10;1.90;99.90
9881;DHT22;4979;51.014;6.678;2023-01-19T00:57:38;1.80;99.90
9881;DHT22;4979;51.014;6.678;2023-01-19T01:00:10;1.80;99.90
9881;DHT22;4979;51.014;6.678;2023-01-19T01:02:37;1.80;99.90
9881;DHT22;4979;51.014;6.678;2023-01-19T01:05:03;1.80;99.90
9881;DHT22;4979;51.014;6.678;2023-01-19T01:07:30;1.80;99.90
9881;DHT22;4979;51.014;6.678;2023-01-19T01:10:00;1.80;99.90
9881;DHT22;4979;51.014;6.678;2023-01-19T01:12:26;1.80;99.90
9881;DHT22;4979;51.014;6.678;2023-01-19T01:14:51;1.70;99.90
9881;DHT22;4979;51.014;6.678;2023-01-19T01:17:17;1.80;99.90
9881;DHT22;4979;51.014;6.678;2023-01-19T01:19:49;1.80;99.90
9881;DHT22;4979;51.014;6.678;2023-01-19T01:22:15;1.70;99.90
9881;DHT22;4979;51.014;6.678;2023-01-19T01:24:41;1.80;99.90
9881;DHT22;4979;51.014;6.678;2023-01-19T01:27:06;1.80;99.90
9881;DHT22;4979;51.014;6.678;2023-01-19T01:29:32;1.80;99.90
9881;DHT22;4979;51.014;6.678;2023-01-19T01:32:00;1.90;99.90
9881;DHT22;4979;51.014;6.678;2023-01-19T01:34:25;1.90;99.90
9881;DHT22;4979;51.014;6.678;2023-01-19T01:36:51;1.80;99.90
9881;DHT22;4979;51.014;6.678;2023-01-19T01:39:17;1.90;99.90
9881;DHT22;4979;51.014;6.678;2023-01-19T01:41:42;2.00;99.90
9881;DHT22;4979;51.014;6.678;2023-01-19T01:50:30;1.80;99.90
9881;DHT22;4979;51.014;6.678;2023-01-19T01:53:01;1.90;99.90
9881;DHT22;4979;51.014;6.678;2023-01-19T01:55:30;1.80;99.90
9881;DHT22;4979;51.014;6.678;2023-01-19T01:58:02;2.00;99.90
9881;DHT22;4979;51.014;6.678;2023-01-19T02:00:30;2.00;99.90
9881;DHT22;4979;51.014;6.678;2023-01-19T02:03:18;1.90;99.90
9881;DHT22;4979;51.014;6.678;2023-01-19T02:05:44;1.90;99.90
9881;DHT22;4979;51.014;6.678;2023-01-19T02:08:18;1.90;99.90
9881;DHT22;4979;51.014;6.678;2023-01-19T02:11:03;1.90;99.90
9881;DHT22;4979;51.014;6.678;2023-01-19T02:13:48;1.90;99.90
9881;DHT22;4979;51.014;6.678;2023-01-19T02:16:15;1.80;99.90
9881;DHT22;4979;51.014;6.678;2023-01-19T02:18:41;1.90;99.90
9881;DHT22;4979;51.014;6.678;2023-01-19T02:21:23;1.80;99.90
9881;DHT22;4979;51.014;6.678;2023-01-19T02:23:54;1.80;99.90
9881;DHT22;4979;51.014;6.678;2023-01-19T02:26:29;1.90;99.90
9881;DHT22;4979;51.014;6.678;2023-01-19T02:28:57;1.90;99.90
9881;DHT22;4979;51.014;6.678;2023-01-19T02:31:24;1.80;99.90
9881;DHT22;4979;51.014;6.678;2023-01-19T02:33:50;1.80;99.90
9881;DHT22;4979;51.014;6.678;2023-01-19T02:36:21;1.80;99.90
9881;DHT22;4979;51.014;6.678;2023-01-19T02:38:50;1.90;99.90
9881;DHT22;4979;51.014;6.678;2023-01-19T02:41:20;1.90;99.90
9881;DHT22;4979;51.014;6.678;2023-01-19T02:43:47;1.90;99.90
9881;DHT22;4979;51.014;6.678;2023-01-19T02:46:14;1.90;99.90
9881;DHT22;4979;51.014;6.678;2023-01-19T02:48:40;1.90;99.90
9881;DHT22;4979;51.014;6.678;2023-01-19T02:51:20;1.80;99.90
9881;DHT22;4979;51.014;6.678;2023-01-19T03:10:04;1.90;99.90
9881;DHT22;4979;51.014;6.678;2023-01-19T03:15:28;1.90;99.90
9881;DHT22;4979;51.014;6.678;2023-01-19T03:17:56;1.90;99.90
9881;DHT22;4979;51.014;6.678;2023-01-19T03:20:24;1.80;99.90
9881;DHT22;4979;51.014;6.678;2023-01-19T03:22:57;1.90;99.90
9881;DHT22;4979;51.014;6.678;2023-01-19T03:25:25;1.90;99.90
9881;DHT22;4979;51.014;6.678;2023-01-19T03:27:53;1.90;99.90
9881;DHT22;4979;51.014;6.678;2023-01-19T03:30:25;1.90;99.90
9881;DHT22;4979;51.014;6.678;2023-01-19T03:32:54;1.90;99.90
9881;DHT22;4979;51.014;6.678;2023-01-19T03:35:22;1.90;99.90
9881;DHT22;4979;51.014;6.678;2023-01-19T03:37:50;1.90;99.90
9881;DHT22;4979;51.014;6.678;2023-01-19T03:40:17;1.90;99.90
9881;DHT22;4979;51.014;6.678;2023-01-19T03:42:43;1.90;99.90
9881;DHT22;4979;51.014;6.678;2023-01-19T03:45:11;2.00;99.90
9881;DHT22;4979;51.014;6.678;2023-01-19T03:47:37;2.00;99.90
9881;DHT22;4979;51.014;6.678;2023-01-19T03:50:06;1.90;99.90
9881;DHT22;4979;51.014;6.678;2023-01-19T03:52:33;2.00;99.90
9881;DHT22;4979;51.014;6.678;2023-01-19T03:55:00;2.00;99.90
9881;DHT22;4979;51.014;6.678;2023-01-19T03:57:26;2.10;99.90
9881;DHT22;4979;51.014;6.678;2023-01-19T03:59:51;2.00;99.90
9881;DHT22;4979;51.014;6.678;2023-01-19T04:02:17;2.00;99.90
9881;DHT22;4979;51.014;6.678;2023-01-19T04:04:43;2.10;99.90
9881;DHT22;4979;51.014;6.678;2023-01-19T04:07:09;2.10;99.90
9881;DHT22;4979;51.014;6.678;2023-01-19T04:09:35;2.10;99.90
9881;DHT22;4979;51.014;6.678;2023-01-19T04:12:01;2.10;99.90
9881;DHT22;4979;51.014;6.678;2023-01-19T04:14:28;2.10;99.90
9881;DHT22;4979;51.014;6.678;2023-01-19T04:16:53;2.20;99.90
9881;DHT22;4979;51.014;6.678;2023-01-19T04:19:19;2.10;99.90
9881;DHT22;4979;51.014;6.678;2023-01-19T04:21:47;2.10;99.90
9881;DHT22;4979;51.014;6.678;2023-01-19T04:24:12;2.20;99.90
9881;DHT22;4979;51.014;6.678;2023-01-19T04:26:38;2.20;99.90
9881;DHT22;4979;51.014;6.678;2023-01-19T04:29:03;2.30;99.90
9881;DHT22;4979;51.014;6.678;2023-01-19T04:31:29;2.20;99.90
9881;DHT22;4979;51.014;6.678;2023-01-19T04:33:55;2.20;99.90
9881;DHT22;4979;51.014;6.678;2023-01-19T04:36:21;2.20;99.90
9881;DHT22;4979;51.014;6.678;2023-01-19T04:38:47;2.20;99.90
9881;DHT22;4979;51.014;6.678;2023-01-19T04:41:13;2.20;99.90
9881;DHT22;4979;51.014;6.678;2023-01-19T04:43:38;2.20;99.90
9881;DHT22;4979;51.014;6.678;2023-01-19T04:46:05;2.20;99.90
9881;DHT22;4979;51.014;6.678;2023-01-19T04:48:31;2.40;99.90
9881;DHT22;4979;51.014;6.678;2023-01-19T04:50:56;2.30;99.90
9881;DHT22;4979;51.014;6.678;2023-01-19T04:53:22;2.30;99.90
9881;DHT22;4979;51.014;6.678;2023-01-19T04:55:52;2.30;99.90
9881;DHT22;4979;51.014;6.678;2023-01-19T04:58:18;2.40;99.90
9881;DHT22;4979;51.014;6.678;2023-01-19T05:00:43;2.30;99.90
9881;DHT22;4979;51.014;6.678;2023-01-19T05:03:09;2.30;99.90
9881;DHT22;4979;51.014;6.678;2023-01-19T05:05:34;2.40;99.90
9881;DHT22;4979;51.014;6.678;2023-01-19T05:08:00;2.30;99.90
9881;DHT22;4979;51.014;6.678;2023-01-19T05:10:25;2.30;99.90
9881;DHT22;4979;51.014;6.678;2023-01-19T05:12:51;2.30;99.90
9881;DHT22;4979;51.014;6.678;2023-01-19T05:15:17;2.30;99.90
9881;DHT22;4979;51.014;6.678;2023-01-19T05:17:42;2.30;99.90
9881;DHT22;4979;51.014;6.678;2023-01-19T05:20:10;2.20;99.90
9881;DHT22;4979;51.014;6.678;2023-01-19T05:22:36;2.20;99.90
9881;DHT22;4979;51.014;6.678;2023-01-19T05:25:02;2.10;99.90
9881;DHT22;4979;51.014;6.678;2023-01-19T05:27:28;2.00;99.90
9881;DHT22;4979;51.014;6.678;2023-01-19T05:29:54;2.00;99.90
9881;DHT22;4979;51.014;6.678;2023-01-19T05:32:19;2.00;99.90
9881;DHT22;4979;51.014;6.678;2023-01-19T05:34:45;1.80;99.90
9881;DHT22;4979;51.014;6.678;2023-01-19T05:37:11;1.80;99.90
9881;DHT22;4979;51.014;6.678;2023-01-19T05:39:36;1.90;99.90
9881;DHT22;4979;51.014;6.678;2023-01-19T05:42:02;1.80;99.90
9881;DHT22;4979;51.014;6.678;2023-01-19T05:44:28;1.70;99.90
9881;DHT22;4979;51.014;6.678;2023-01-19T05:46:53;1.60;99.90
9881;DHT22;4979;51.014;6.678;2023-01-19T05:49:19;1.70;99.90
9881;DHT22;4979;51.014;6.678;2023-01-19T05:51:45;1.60;99.90
9881;DHT22;4979;51.014;6.678;2023-01-19T05:54:12;1.70;99.90
9881;DHT22;4979;51.014;6.678;2023-01-19T05:56:39;0.50;99.90
9881;DHT22;4979;51.014;6.678;2023-01-19T05:59:04;1.50;99.90
9881;DHT22;4979;51.014;6.678;2023-01-19T06:01:30;1.60;99.90
9881;DHT22;4979;51.014;6.678;2023-01-19T06:03:56;1.60;99.90
9881;DHT22;4979;51.014;6.678;2023-01-19T06:06:21;1.50;99.90
9881;DHT22;4979;51.014;6.678;2023-01-19T06:08:47;1.60;99.90
9881;DHT22;4979;51.014;6.678;2023-01-19T06:11:13;1.60;99.90
9881;DHT22;4979;51.014;6.678;2023-01-19T06:13:38;1.50;99.90
9881;DHT22;4979;51.014;6.678;2023-01-19T06:16:05;1.60;99.90
9881;DHT22;4979;51.014;6.678;2023-01-19T06:18:30;1.50;99.90
9881;DHT22;4979;51.014;6.678;2023-01-19T06:20:56;1.50;99.90
9881;DHT22;4979;51.014;6.678;2023-01-19T06:23:25;1.40;99.90
9881;DHT22;4979;51.014;6.678;2023-01-19T06:25:51;1.50;99.90
9881;DHT22;4979;51.014;6.678;2023-01-19T06:28:17;1.40;99.90
9881;DHT22;4979;51.014;6.678;2023-01-19T06:30:47;1.40;99.90
9881;DHT22;4979;51.014;6.678;2023-01-19T06:33:14;1.50;99.90
9881;DHT22;4979;51.014;6.678;2023-01-19T06:35:45;1.40;99.90
9881;DHT22;4979;51.014;6.678;2023-01-19T06:38:11;1.40;99.90
9881;DHT22;4979;51.014;6.678;2023-01-19T06:40:38;1.60;99.90
9881;DHT22;4979;51.014;6.678;2023-01-19T06:43:04;1.40;99.90
9881;DHT22;4979;51.014;6.678;2023-01-19T06:45:30;1.40;99.90
9881;DHT22;4979;51.014;6.678;2023-01-19T06:50:22;1.60;99.90
9881;DHT22;4979;51.014;6.678;2023-01-19T06:52:50;1.60;99.90
9881;DHT22;4979;51.014;6.678;2023-01-19T06:55:16;1.50;99.90
9881;DHT22;4979;51.014;6.678;2023-01-19T06:57:42;1.40;99.90
9881;DHT22;4979;51.014;6.678;2023-01-19T07:00:09;2.70;99.90
9881;DHT22;4979;51.014;6.678;2023-01-19T07:02:36;1.40;99.90
9881;DHT22;4979;51.014;6.678;2023-01-19T07:05:03;1.60;99.90
9881;DHT22;4979;51.014;6.678;2023-01-19T07:07:31;1.60;99.90
9881;DHT22;4979;51.014;6.678;2023-01-19T07:09:56;1.60;99.90
9881;DHT22;4979;51.014;6.678;2023-01-19T07:12:22;1.60;99.90
9881;DHT22;4979;51.014;6.678;2023-01-19T07:14:48;1.60;99.90
9881;DHT22;4979;51.014;6.678;2023-01-19T07:17:14;1.50;99.90
9881;DHT22;4979;51.014;6.678;2023-01-19T07:19:39;1.60;99.90
9881;DHT22;4979;51.014;6.678;2023-01-19T07:22:05;1.40;99.90
9881;DHT22;4979;51.014;6.678;2023-01-19T07:24:31;1.60;99.90
9881;DHT22;4979;51.014;6.678;2023-01-19T07:26:58;1.60;99.90
9881;DHT22;4979;51.014;6.678;2023-01-19T07:29:24;1.70;99.90
9881;DHT22;4979;51.014;6.678;2023-01-19T07:31:49;1.60;99.90
9881;DHT22;4979;51.014;6.678;2023-01-19T07:34:15;1.60;99.90
9881;DHT22;4979;51.014;6.678;2023-01-19T07:36:41;1.50;99.90
9881;DHT22;4979;51.014;6.678;2023-01-19T07:39:06;3.70;99.90
9881;DHT22;4979;51.014;6.678;2023-01-19T07:41:32;1.50;99.90
9881;DHT22;4979;51.014;6.678;2023-01-19T07:43:57;1.80;99.90
9881;DHT22;4979;51.014;6.678;2023-01-19T07:46:23;1.70;99.90
9881;DHT22;4979;51.014;6.678;2023-01-19T07:48:48;1.60;99.90
9881;DHT22;4979;51.014;6.678;2023-01-19T07:51:14;1.60;99.90
9881;DHT22;4979;51.014;6.678;2023-01-19T07:53:43;1.60;99.90
9881;DHT22;4979;51.014;6.678;2023-01-19T07:56:10;1.80;99.90
9881;DHT22;4979;51.014;6.678;2023-01-19T07:58:35;1.70;99.90
9881;DHT22;4979;51.014;6.678;2023-01-19T08:01:08;1.80;99.90
9881;DHT22;4979;51.014;6.678;2023-01-19T08:03:34;1.90;99.90
9881;DHT22;4979;51.014;6.678;2023-01-19T08:06:00;1.70;99.90
9881;DHT22;4979;51.014;6.678;2023-01-19T08:08:28;1.70;99.90
9881;DHT22;4979;51.014;6.678;2023-01-19T08:10:54;1.90;99.90
9881;DHT22;4979;51.014;6.678;2023-01-19T08:13:19;1.80;99.90
9881;DHT22;4979;51.014;6.678;2023-01-19T08:15:48;1.80;99.90
9881;DHT22;4979;51.014;6.678;2023-01-19T08:18:14;1.80;99.90
9881;DHT22;4979;51.014;6.678;2023-01-19T08:20:40;2.00;99.90
9881;DHT22;4979;51.014;6.678;2023-01-19T08:23:06;1.80;99.90
9881;DHT22;4979;51.014;6.678;2023-01-19T08:25:36;2.00;99.90
9881;DHT22;4979;51.014;6.678;2023-01-19T08:28:03;1.80;99.90
9881;DHT22;4979;51.014;6.678;2023-01-19T08:30:30;1.90;99.90
9881;DHT22;4979;51.014;6.678;2023-01-19T08:32:56;1.90;99.90
9881;DHT22;4979;51.014;6.678;2023-01-19T08:35:29;2.10;99.90
9881;DHT22;4979;51.014;6.678;2023-01-19T08:37:55;2.10;99.90
9881;DHT22;4979;51.014;6.678;2023-01-19T08:40:26;2.00;99.90
9881;DHT22;4979;51.014;6.678;2023-01-19T08:42:51;2.10;99.90
9881;DHT22;4979;51.014;6.678;2023-01-19T08:45:17;2.20;99.90
9881;DHT22;4979;51.014;6.678;2023-01-19T08:47:42;2.00;99.90
9881;DHT22;4979;51.014;6.678;2023-01-19T08:50:08;2.20;99.90
9881;DHT22;4979;51.014;6.678;2023-01-19T08:52:35;2.20;99.90
9881;DHT22;4979;51.014;6.678;2023-01-19T08:55:00;2.30;99.90
9881;DHT22;4979;51.014;6.678;2023-01-19T08:57:26;2.10;99.90
9881;DHT22;4979;51.014;6.678;2023-01-19T08:59:51;2.30;99.90
9881;DHT22;4979;51.014;6.678;2023-01-19T09:02:17;2.30;99.90
9881;DHT22;4979;51.014;6.678;2023-01-19T09:04:42;2.30;99.90
9881;DHT22;4979;51.014;6.678;2023-01-19T09:07:08;2.40;99.90
9881;DHT22;4979;51.014;6.678;2023-01-19T09:09:34;2.40;99.90
9881;DHT22;4979;51.014;6.678;2023-01-19T09:12:02;2.30;99.90
9881;DHT22;4979;51.014;6.678;2023-01-19T09:14:27;2.30;99.90
9881;DHT22;4979;51.014;6.678;2023-01-19T09:16:53;2.30;99.90
9881;DHT22;4979;51.014;6.678;2023-01-19T09:19:20;2.40;99.90
9881;DHT22;4979;51.014;6.678;2023-01-19T09:21:46;2.50;99.90
9881;DHT22;4979;51.014;6.678;2023-01-19T09:24:11;2.40;99.90
9881;DHT22;4979;51.014;6.678;2023-01-19T09:26:37;2.30;99.90
9881;DHT22;4979;51.014;6.678;2023-01-19T09:29:04;2.40;99.90
9881;DHT22;4979;51.014;6.678;2023-01-19T09:31:30;2.60;99.90
9881;DHT22;4979;51.014;6.678;2023-01-19T09:33:55;2.50;99.90
9881;DHT22;4979;51.014;6.678;2023-01-19T09:36:21;2.40;99.90
9881;DHT22;4979;51.014;6.678;2023-01-19T09:38:47;2.20;99.90
9881;DHT22;4979;51.014;6.678;2023-01-19T09:41:19;2.00;99.90
9881;DHT22;4979;51.014;6.678;2023-01-19T09:44:03;2.20;99.90
9881;DHT22;4979;51.014;6.678;2023-01-19T09:46:36;2.00;99.90
9881;DHT22;4979;51.014;6.678;2023-01-19T09:49:13;2.30;99.90
9881;DHT22;4979;51.014;6.678;2023-01-19T09:51:44;2.10;99.90
9881;DHT22;4979;51.014;6.678;2023-01-19T09:54:19;2.20;99.90
9881;DHT22;4979;51.014;6.678;2023-01-19T09:56:48;2.30;99.90
9881;DHT22;4979;51.014;6.678;2023-01-19T10:10:23;2.40;99.90
9881;DHT22;4979;51.014;6.678;2023-01-19T10:18:22;2.50;99.90
9881;DHT22;4979;51.014;6.678;2023-01-19T10:21:05;2.70;99.90
9881;DHT22;4979;51.014;6.678;2023-01-19T10:26:19;2.60;99.90
9881;DHT22;4979;51.014;6.678;2023-01-19T10:28:47;2.70;99.90
9881;DHT22;4979;51.014;6.678;2023-01-19T10:31:17;2.60;99.90
9881;DHT22;4979;51.014;6.678;2023-01-19T10:33:43;2.80;99.90
9881;DHT22;4979;51.014;6.678;2023-01-19T10:36:16;2.90;99.90
9881;DHT22;4979;51.014;6.678;2023-01-19T10:38:43;2.70;99.90
9881;DHT22;4979;51.014;6.678;2023-01-19T10:41:26;2.80;99.90
9881;DHT22;4979;51.014;6.678;2023-01-19T10:44:02;2.90;99.90
9881;DHT22;4979;51.014;6.678;2023-01-19T10:46:41;2.90;99.90
9881;DHT22;4979;51.014;6.678;2023-01-19T10:49:22;3.00;99.90
9881;DHT22;4979;51.014;6.678;2023-01-19T10:51:49;3.10;99.90
9881;DHT22;4979;51.014;6.678;2023-01-19T10:54:15;3.20;99.90
9881;DHT22;4979;51.014;6.678;2023-01-19T10:56:41;3.10;99.90
9881;DHT22;4979;51.014;6.678;2023-01-19T10:59:32;3.20;99.90
9881;DHT22;4979;51.014;6.678;2023-01-19T11:02:23;3.20;99.90
9881;DHT22;4979;51.014;6.678;2023-01-19T11:04:51;3.30;99.90
9881;DHT22;4979;51.014;6.678;2023-01-19T11:07:26;3.40;99.90
9881;DHT22;4979;51.014;6.678;2023-01-19T11:13:06;3.80;99.90
9881;DHT22;4979;51.014;6.678;2023-01-19T11:20:52;3.80;99.90
9881;DHT22;4979;51.014;6.678;2023-01-19T11:25:51;3.80;99.90
9881;DHT22;4979;51.014;6.678;2023-01-19T11:28:46;3.70;99.90
9881;DHT22;4979;51.014;6.678;2023-01-19T11:33:48;3.80;99.90
9881;DHT22;4979;51.014;6.678;2023-01-19T11:36:17;3.90;99.90
9881;DHT22;4979;51.014;6.678;2023-01-19T11:38:44;3.80;99.90
9881;DHT22;4979;51.014;6.678;2023-01-19T11:41:34;3.90;99.90
9881;DHT22;4979;51.014;6.678;2023-01-19T11:44:22;3.80;99.90
9881;DHT22;4979;51.014;6.678;2023-01-19T11:46:53;3.90;99.90
9881;DHT22;4979;51.014;6.678;2023-01-19T11:49:40;4.10;99.90
9881;DHT22;4979;51.014;6.678;2023-01-19T11:57:20;4.20;99.90
9881;DHT22;4979;51.014;6.678;2023-01-19T11:59:46;4.20;99.90
9881;DHT22;4979;51.014;6.678;2023-01-19T12:04:42;4.10;99.90
9881;DHT22;4979;51.014;6.678;2023-01-19T12:07:10;4.00;99.90
9881;DHT22;4979;51.014;6.678;2023-01-19T12:09:43;4.00;99.90
9881;DHT22;4979;51.014;6.678;2023-01-19T12:12:28;4.10;99.90
9881;DHT22;4979;51.014;6.678;2023-01-19T12:15:22;4.10;99.90
9881;DHT22;4979;51.014;6.678;2023-01-19T12:17:53;3.90;99.90
9881;DHT22;4979;51.014;6.678;2023-01-19T12:20:36;3.90;99.90
9881;DHT22;4979;51.014;6.678;2023-01-19T12:26:16;3.90;99.90
9881;DHT22;4979;51.014;6.678;2023-01-19T12:28:48;4.10;99.90
9881;DHT22;4979;51.014;6.678;2023-01-19T12:31:21;4.10;99.90
9881;DHT22;4979;51.014;6.678;2023-01-19T12:33:48;4.20;99.90
9881;DHT22;4979;51.014;6.678;2023-01-19T12:36:49;4.20;99.90
9881;DHT22;4979;51.014;6.678;2023-01-19T12:39:20;4.10;99.90
9881;DHT22;4979;51.014;6.678;2023-01-19T12:41:47;4.00;99.90
9881;DHT22;4979;51.014;6.678;2023-01-19T12:44:18;4.10;99.90
9881;DHT22;4979;51.014;6.678;2023-01-19T12:46:47;3.90;99.90
9881;DHT22;4979;51.014;6.678;2023-01-19T12:52:32;3.90;99.90
9881;DHT22;4979;51.014;6.678;2023-01-19T13:02:55;3.70;99.90
9881;DHT22;4979;51.014;6.678;2023-01-19T13:13:36;3.90;99.90
9881;DHT22;4979;51.014;6.678;2023-01-19T13:21:46;4.20;99.90
9881;DHT22;4979;51.014;6.678;2023-01-19T13:24:20;4.30;99.90
9881;DHT22;4979;51.014;6.678;2023-01-19T13:29:30;4.40;99.90
9881;DHT22;4979;51.014;6.678;2023-01-19T13:32:00;4.40;99.90
9881;DHT22;4979;51.014;6.678;2023-01-19T13:34:29;4.30;99.90
9881;DHT22;4979;51.014;6.678;2023-01-19T13:36:56;4.40;99.90
9881;DHT22;4979;51.014;6.678;2023-01-19T13:39:34;4.40;99.90
9881;DHT22;4979;51.014;6.678;2023-01-19T13:42:04;4.40;99.90
9881;DHT22;4979;51.014;6.678;2023-01-19T13:44:43;4.40;99.90
9881;DHT22;4979;51.014;6.678;2023-01-19T13:47:18;4.40;99.90
9881;DHT22;4979;51.014;6.678;2023-01-19T13:49:47;4.30;99.90
9881;DHT22;4979;51.014;6.678;2023-01-19T13:52:19;4.20;99.90
9881;DHT22;4979;51.014;6.678;2023-01-19T13:54:50;4.20;99.90
9881;DHT22;4979;51.014;6.678;2023-01-19T14:05:31;4.00;99.90
9881;DHT22;4979;51.014;6.678;2023-01-19T14:10:38;3.90;99.90
9881;DHT22;4979;51.014;6.678;2023-01-19T14:13:26;3.90;99.90
9881;DHT22;4979;51.014;6.678;2023-01-19T14:15:57;3.90;99.90
9881;DHT22;4979;51.014;6.678;2023-01-19T14:18:31;3.80;99.90
9881;DHT22;4979;51.014;6.678;2023-01-19T14:21:05;3.70;99.90
9881;DHT22;4979;51.014;6.678;2023-01-19T14:23:54;3.80;99.90
9881;DHT22;4979;51.014;6.678;2023-01-19T14:29:33;3.50;99.90
9881;DHT22;4979;51.014;6.678;2023-01-19T14:37:25;3.60;99.90
9881;DHT22;4979;51.014;6.678;2023-01-19T14:42:55;3.80;99.90
9881;DHT22;4979;51.014;6.678;2023-01-19T14:47:57;3.90;99.90
9881;DHT22;4979;51.014;6.678;2023-01-19T14:50:35;3.80;99.90
9881;DHT22;4979;51.014;6.678;2023-01-19T14:53:23;3.90;99.90
9881;DHT22;4979;51.014;6.678;2023-01-19T14:55:55;3.90;99.90
9881;DHT22;4979;51.014;6.678;2023-01-19T14:58:25;3.80;99.90
9881;DHT22;4979;51.014;6.678;2023-01-19T15:00:52;3.70;99.90
9881;DHT22;4979;51.014;6.678;2023-01-19T15:03:24;3.70;99.90
9881;DHT22;4979;51.014;6.678;2023-01-19T15:05:50;3.70;99.90
9881;DHT22;4979;51.014;6.678;2023-01-19T15:08:20;3.70;99.90
9881;DHT22;4979;51.014;6.678;2023-01-19T15:10:48;3.70;99.90
9881;DHT22;4979;51.014;6.678;2023-01-19T15:13:22;3.70;99.90
9881;DHT22;4979;51.014;6.678;2023-01-19T15:15:49;3.70;99.90
9881;DHT22;4979;51.014;6.678;2023-01-19T15:18:24;3.60;99.90
9881;DHT22;4979;51.014;6.678;2023-01-19T15:20:50;3.60;99.90
9881;DHT22;4979;51.014;6.678;2023-01-19T15:23:16;3.70;99.90
9881;DHT22;4979;51.014;6.678;2023-01-19T15:25:41;3.60;99.90
9881;DHT22;4979;51.014;6.678;2023-01-19T15:28:12;3.60;99.90
9881;DHT22;4979;51.014;6.678;2023-01-19T15:30:37;3.50;99.90
9881;DHT22;4979;51.014;6.678;2023-01-19T15:33:03;3.50;99.90
9881;DHT22;4979;51.014;6.678;2023-01-19T15:35:29;3.50;99.90
9881;DHT22;4979;51.014;6.678;2023-01-19T15:37:55;3.50;99.90
9881;DHT22;4979;51.014;6.678;2023-01-19T15:40:21;3.40;99.90
9881;DHT22;4979;51.014;6.678;2023-01-19T15:42:48;3.40;99.90
9881;DHT22;4979;51.014;6.678;2023-01-19T15:45:38;3.50;99.90
9881;DHT22;4979;51.014;6.678;2023-01-19T15:48:08;3.50;99.90
9881;DHT22;4979;51.014;6.678;2023-01-19T15:50:39;3.50;99.90
9881;DHT22;4979;51.014;6.678;2023-01-19T15:53:06;3.50;99.90
9881;DHT22;4979;51.014;6.678;2023-01-19T15:55:32;3.50;99.90
9881;DHT22;4979;51.014;6.678;2023-01-19T15:57:58;3.50;99.90
9881;DHT22;4979;51.014;6.678;2023-01-19T16:00:27;3.50;99.90
9881;DHT22;4979;51.014;6.678;2023-01-19T16:02:53;3.60;99.90
9881;DHT22;4979;51.014;6.678;2023-01-19T16:05:18;3.50;99.90
9881;DHT22;4979;51.014;6.678;2023-01-19T16:07:44;3.60;99.90
9881;DHT22;4979;51.014;6.678;2023-01-19T16:10:10;3.50;99.90
9881;DHT22;4979;51.014;6.678;2023-01-19T16:12:37;3.50;99.90
9881;DHT22;4979;51.014;6.678;2023-01-19T16:15:03;3.40;99.90
9881;DHT22;4979;51.014;6.678;2023-01-19T16:17:29;3.40;99.90
9881;DHT22;4979;51.014;6.678;2023-01-19T16:19:54;3.50;99.90
9881;DHT22;4979;51.014;6.678;2023-01-19T16:22:20;3.50;99.90
9881;DHT22;4979;51.014;6.678;2023-01-19T16:24:45;3.40;99.90
9881;DHT22;4979;51.014;6.678;2023-01-19T16:27:11;3.40;99.90
9881;DHT22;4979;51.014;6.678;2023-01-19T16:29:36;3.40;99.90
9881;DHT22;4979;51.014;6.678;2023-01-19T16:32:02;3.40;99.90
9881;DHT22;4979;51.014;6.678;2023-01-19T16:34:28;3.30;99.90
9881;DHT22;4979;51.014;6.678;2023-01-19T16:36:53;3.30;99.90
9881;DHT22;4979;51.014;6.678;2023-01-19T16:39:19;3.40;99.90
9881;DHT22;4979;51.014;6.678;2023-01-19T16:41:44;3.30;99.90
9881;DHT22;4979;51.014;6.678;2023-01-19T16:44:11;3.40;99.90
9881;DHT22;4979;51.014;6.678;2023-01-19T16:46:42;3.40;99.90
9881;DHT22;4979;51.014;6.678;2023-01-19T16:49:16;3.30;99.90
9881;DHT22;4979;51.014;6.678;2023-01-19T16:51:42;3.30;99.90
9881;DHT22;4979;51.014;6.678;2023-01-19T16:54:16;3.30;99.90
9881;DHT22;4979;51.014;6.678;2023-01-19T16:56:43;3.30;99.90
9881;DHT22;4979;51.014;6.678;2023-01-19T16:59:10;3.30;99.90
9881;DHT22;4979;51.014;6.678;2023-01-19T17:01:37;3.20;99.90
9881;DHT22;4979;51.014;6.678;2023-01-19T17:04:03;3.20;99.90
9881;DHT22;4979;51.014;6.678;2023-01-19T17:06:29;3.20;99.90
9881;DHT22;4979;51.014;6.678;2023-01-19T17:08:55;3.20;99.90
9881;DHT22;4979;51.014;6.678;2023-01-19T17:11:23;3.30;99.90
9881;DHT22;4979;51.014;6.678;2023-01-19T17:14:00;5.70;99.90
9881;DHT22;4979;51.014;6.678;2023-01-19T17:16:27;3.20;99.90
9881;DHT22;4979;51.014;6.678;2023-01-19T17:18:55;3.20;99.90
9881;DHT22;4979;51.014;6.678;2023-01-19T17:21:21;3.20;99.90
9881;DHT22;4979;51.014;6.678;2023-01-19T17:23:49;3.20;99.90
9881;DHT22;4979;51.014;6.678;2023-01-19T17:26:16;3.20;99.90
9881;DHT22;4979;51.014;6.678;2023-01-19T17:28:41;3.30;99.90
9881;DHT22;4979;51.014;6.678;2023-01-19T17:33:37;3.20;99.90
9881;DHT22;4979;51.014;6.678;2023-01-19T17:36:04;3.30;99.90
9881;DHT22;4979;51.014;6.678;2023-01-19T17:38:30;3.30;99.90
9881;DHT22;4979;51.014;6.678;2023-01-19T17:40:55;3.20;99.90
9881;DHT22;4979;51.014;6.678;2023-01-19T17:43:21;3.20;99.90
9881;DHT22;4979;51.014;6.678;2023-01-19T17:45:46;3.10;99.90
9881;DHT22;4979;51.014;6.678;2023-01-19T17:48:12;3.00;99.90
9881;DHT22;4979;51.014;6.678;2023-01-19T17:50:38;3.00;99.90
9881;DHT22;4979;51.014;6.678;2023-01-19T17:53:04;3.00;99.90
9881;DHT22;4979;51.014;6.678;2023-01-19T17:55:32;3.00;99.90
9881;DHT22;4979;51.014;6.678;2023-01-19T17:57:58;3.00;99.90
9881;DHT22;4979;51.014;6.678;2023-01-19T18:00:23;2.90;99.90
9881;DHT22;4979;51.014;6.678;2023-01-19T18:02:50;2.80;99.90
9881;DHT22;4979;51.014;6.678;2023-01-19T18:05:16;2.90;99.90
9881;DHT22;4979;51.014;6.678;2023-01-19T18:07:42;2.80;99.90
9881;DHT22;4979;51.014;6.678;2023-01-19T18:10:08;2.70;99.90
9881;DHT22;4979;51.014;6.678;2023-01-19T18:12:34;2.70;99.90
9881;DHT22;4979;51.014;6.678;2023-01-19T18:15:00;2.60;99.90
9881;DHT22;4979;51.014;6.678;2023-01-19T18:17:26;2.60;99.90
9881;DHT22;4979;51.014;6.678;2023-01-19T18:19:51;2.70;99.90
9881;DHT22;4979;51.014;6.678;2023-01-19T18:22:18;2.70;99.90
9881;DHT22;4979;51.014;6.678;2023-01-19T18:24:44;2.70;99.90
9881;DHT22;4979;51.014;6.678;2023-01-19T18:27:10;2.60;99.90
9881;DHT22;4979;51.014;6.678;2023-01-19T18:29:35;2.70;99.90
9881;DHT22;4979;51.014;6.678;2023-01-19T18:32:01;2.60;99.90